createdAt,value
2023-04-24T00:00:25.034Z,2.40
2023-04-24T00:02:42.480Z,2.17
2023-04-24T00:04:59.606Z,2.20
2023-04-24T00:07:16.818Z,2.20
2023-04-24T00:09:33.872Z,2.30
2023-04-24T00:11:51.169Z,2.30
2023-04-24T00:14:08.134Z,2.30
2023-04-24T00:16:25.567Z,2.40
2023-04-24T00:18:42.587Z,2.40
2023-04-24T00:20:59.991Z,2.45
2023-04-24T00:23:17.271Z,2.20
2023-04-24T00:25:34.281Z,2.20
2023-04-24T00:27:51.421Z,2.47
2023-04-24T00:30:08.543Z,2.53
2023-04-24T00:32:27.987Z,2.70
2023-04-24T00:34:45.137Z,2.20
2023-04-24T00:37:03.252Z,3.10
2023-04-24T00:39:20.312Z,3.00
2023-04-24T00:41:37.573Z,2.85
2023-04-24T00:43:54.917Z,2.05
2023-04-24T00:46:12.226Z,1.85
2023-04-24T00:48:29.496Z,1.58
2023-04-24T00:50:47.822Z,1.45
2023-04-24T00:53:04.965Z,1.30
2023-04-24T00:55:22.337Z,0.90
2023-04-24T00:57:39.257Z,0.85
2023-04-24T00:59:56.332Z,0.77
2023-04-24T01:02:14.653Z,1.02
2023-04-24T01:04:32.185Z,0.90
2023-04-24T01:06:49.566Z,0.60
2023-04-24T01:09:08.003Z,0.80
2023-04-24T01:11:25.289Z,0.80
2023-04-24T01:13:42.231Z,0.77
2023-04-24T01:15:59.249Z,0.80
2023-04-24T01:18:16.334Z,0.70
2023-04-24T01:20:34.630Z,0.70
2023-04-24T01:22:51.648Z,0.80
2023-04-24T01:25:08.886Z,0.90
2023-04-24T01:27:26.140Z,0.60
2023-04-24T01:29:43.360Z,0.77
2023-04-24T01:32:00.924Z,0.88
2023-04-24T01:34:18.005Z,0.93
2023-04-24T01:36:36.057Z,0.95
2023-04-24T01:38:53.130Z,1.00
2023-04-24T01:41:10.483Z,1.00
2023-04-24T01:43:27.498Z,1.00
2023-04-24T01:45:44.411Z,1.02
2023-04-24T01:48:01.746Z,1.00
2023-04-24T01:50:18.901Z,0.80
2023-04-24T01:52:35.905Z,0.95
2023-04-24T01:54:53.199Z,1.17
2023-04-24T01:57:10.170Z,1.02
2023-04-24T01:59:27.294Z,0.88
2023-04-24T02:01:44.216Z,1.20
2023-04-24T02:04:01.708Z,0.90
2023-04-24T02:06:19.157Z,0.95
2023-04-24T02:08:37.121Z,0.85
2023-04-24T02:10:54.746Z,1.00
2023-04-24T02:13:12.000Z,0.90
2023-04-24T02:15:28.988Z,1.00
2023-04-24T02:17:47.287Z,1.20
2023-04-24T02:20:04.597Z,1.10
2023-04-24T02:22:21.639Z,1.08
2023-04-24T02:24:39.005Z,1.20
2023-04-24T02:26:56.127Z,1.00
2023-04-24T02:29:13.395Z,1.38
2023-04-24T02:31:30.692Z,1.40
2023-04-24T02:33:47.984Z,1.40
2023-04-24T02:36:04.967Z,1.42
2023-04-24T02:38:21.861Z,1.88
2023-04-24T02:40:39.129Z,1.50
2023-04-24T02:42:56.423Z,1.98
2023-04-24T02:45:13.496Z,2.20
2023-04-24T02:47:31.548Z,2.33
2023-04-24T02:49:48.610Z,2.22
2023-04-24T02:52:05.682Z,2.25
2023-04-24T02:54:23.047Z,2.70
2023-04-24T02:56:40.363Z,3.00
2023-04-24T02:58:57.375Z,2.80
2023-04-24T03:01:14.331Z,3.13
2023-04-24T03:03:31.878Z,3.08
2023-04-24T03:05:49.128Z,2.72
2023-04-24T03:08:06.256Z,2.92
2023-04-24T03:10:23.322Z,2.88
2023-04-24T03:12:40.270Z,3.28
2023-04-24T03:14:57.261Z,2.80
2023-04-24T03:17:14.525Z,3.40
2023-04-24T03:19:31.822Z,3.58
2023-04-24T03:21:51.047Z,3.15
2023-04-24T03:24:08.308Z,3.13
2023-04-24T03:26:25.405Z,3.28
2023-04-24T03:28:42.425Z,3.10
2023-04-24T03:30:59.498Z,3.38
2023-04-24T03:33:16.794Z,3.30
2023-04-24T03:35:34.097Z,3.13
2023-04-24T03:37:51.118Z,2.90
2023-04-24T03:40:08.040Z,3.08
2023-04-24T03:42:25.334Z,3.03
2023-04-24T03:44:42.311Z,3.10
2023-04-24T03:46:59.293Z,3.20
2023-04-24T03:49:16.359Z,3.70
2023-04-24T03:51:33.608Z,3.20
2023-04-24T03:53:50.591Z,2.80
2023-04-24T03:56:07.883Z,3.20
2023-04-24T03:58:25.875Z,3.75
2023-04-24T04:00:44.118Z,3.95
2023-04-24T04:03:01.134Z,4.07
2023-04-24T04:05:18.330Z,4.07
2023-04-24T04:07:35.326Z,3.30
2023-04-24T04:09:52.395Z,3.63
2023-04-24T04:12:09.430Z,3.60
2023-04-24T04:14:26.454Z,3.00
2023-04-24T04:16:43.753Z,3.63
2023-04-24T04:19:00.896Z,3.42
2023-04-24T04:21:17.868Z,3.60
2023-04-24T04:23:34.863Z,3.38
2023-04-24T04:25:51.946Z,3.80
2023-04-24T04:28:08.837Z,3.15
2023-04-24T04:30:25.812Z,2.95
2023-04-24T04:32:43.087Z,3.00
2023-04-24T04:35:01.154Z,3.15
2023-04-24T04:37:18.058Z,5.13
2023-04-24T04:39:34.981Z,5.07
2023-04-24T04:41:51.974Z,5.30
2023-04-24T04:44:09.017Z,5.70
2023-04-24T04:46:26.066Z,5.88
2023-04-24T04:48:43.218Z,5.25
2023-04-24T04:51:00.224Z,5.28
2023-04-24T04:53:17.301Z,5.38
2023-04-24T04:55:34.543Z,5.70
2023-04-24T04:57:51.821Z,5.93
2023-04-24T05:00:08.859Z,6.45
2023-04-24T05:02:26.303Z,5.97
2023-04-24T05:04:43.908Z,5.35
2023-04-24T05:07:00.965Z,5.57
2023-04-24T05:09:18.236Z,5.80
2023-04-24T05:11:35.243Z,5.60
2023-04-24T05:13:52.289Z,6.07
2023-04-24T05:16:09.209Z,5.55
2023-04-24T05:18:26.129Z,5.35
2023-04-24T05:20:43.376Z,5.40
2023-04-24T05:23:00.383Z,5.40
2023-04-24T05:25:17.628Z,5.47
2023-04-24T05:27:34.885Z,5.80
2023-04-24T05:29:51.949Z,6.10
2023-04-24T05:32:08.963Z,4.93
2023-04-24T05:34:25.909Z,5.32
2023-04-24T05:36:43.107Z,5.32
2023-04-24T05:39:01.062Z,5.03
2023-04-24T05:41:18.106Z,4.85
2023-04-24T05:43:35.206Z,4.32
2023-04-24T05:45:52.150Z,4.43
2023-04-24T05:48:09.219Z,4.25
2023-04-24T05:50:26.341Z,3.92
2023-04-24T05:52:44.590Z,4.70
2023-04-24T05:55:01.882Z,4.47
2023-04-24T05:57:18.899Z,4.30
2023-04-24T05:59:36.175Z,3.92
2023-04-24T06:01:53.120Z,3.63
2023-04-24T06:04:10.258Z,3.67
2023-04-24T06:06:27.662Z,3.30
2023-04-24T06:08:44.708Z,3.55
2023-04-24T06:11:04.387Z,3.42
2023-04-24T06:13:21.780Z,3.20
2023-04-24T06:15:38.732Z,3.28
2023-04-24T06:17:56.024Z,3.80
2023-04-24T06:20:13.102Z,3.40
2023-04-24T06:22:30.131Z,3.85
2023-04-24T06:24:47.542Z,4.28
2023-04-24T06:27:04.837Z,4.13
2023-04-24T06:29:22.072Z,3.92
2023-04-24T06:31:39.098Z,4.20
2023-04-24T06:33:57.062Z,4.57
2023-04-24T06:36:13.983Z,4.20
2023-04-24T06:38:32.157Z,4.47
2023-04-24T06:40:49.168Z,4.10
2023-04-24T06:43:07.123Z,3.95
2023-04-24T06:45:24.520Z,4.38
2023-04-24T06:47:41.818Z,3.22
2023-04-24T06:49:58.890Z,4.13
2023-04-24T06:52:16.172Z,3.65
2023-04-24T06:54:33.425Z,3.75
2023-04-24T06:56:50.411Z,3.58
2023-04-24T06:59:07.418Z,3.80
2023-04-24T07:01:24.794Z,3.95
2023-04-24T07:03:41.914Z,4.10
2023-04-24T07:05:59.253Z,4.32
2023-04-24T07:08:16.474Z,4.10
2023-04-24T07:10:33.559Z,4.05
2023-04-24T07:12:50.521Z,3.80
2023-04-24T07:15:07.575Z,4.00
2023-04-24T07:17:24.851Z,4.00
2023-04-24T07:19:42.059Z,3.80
2023-04-24T07:21:59.165Z,3.80
2023-04-24T07:24:17.243Z,3.50
2023-04-24T07:26:34.584Z,3.80
2023-04-24T07:28:51.900Z,3.35
2023-04-24T07:31:09.939Z,3.90
2023-04-24T07:33:26.976Z,3.55
2023-04-24T07:35:44.982Z,3.45
2023-04-24T07:38:02.304Z,3.42
2023-04-24T07:40:19.361Z,3.33
2023-04-24T07:42:36.629Z,3.30
2023-04-24T07:44:53.892Z,4.00
2023-04-24T07:47:11.133Z,3.10
2023-04-24T07:49:28.386Z,3.33
2023-04-24T07:51:45.299Z,3.22
2023-04-24T07:54:02.283Z,3.70
2023-04-24T07:56:19.514Z,3.70
2023-04-24T07:58:36.478Z,3.65
2023-04-24T08:00:53.668Z,3.30
2023-04-24T08:03:11.088Z,3.70
2023-04-24T08:05:28.204Z,4.65
2023-04-24T08:07:45.658Z,5.07
2023-04-24T08:10:03.984Z,5.20
2023-04-24T08:12:21.041Z,3.80
2023-04-24T08:14:38.379Z,3.38
2023-04-24T08:16:56.488Z,2.67
2023-04-24T08:19:16.169Z,2.80
2023-04-24T08:21:34.095Z,3.28
2023-04-24T08:23:51.350Z,3.30
2023-04-24T08:26:08.527Z,2.80
2023-04-24T08:28:25.571Z,2.92
2023-04-24T08:30:42.823Z,2.85
2023-04-24T08:32:59.941Z,2.83
2023-04-24T08:35:16.938Z,2.78
2023-04-24T08:37:34.048Z,2.58
2023-04-24T08:39:51.395Z,2.38
2023-04-24T08:42:08.474Z,2.38
2023-04-24T08:44:26.773Z,2.15
2023-04-24T08:46:44.684Z,2.20
2023-04-24T08:49:02.007Z,2.25
2023-04-24T08:51:18.957Z,2.17
2023-04-24T08:53:36.269Z,1.67
2023-04-24T08:55:53.635Z,1.80
2023-04-24T08:58:10.687Z,1.90
2023-04-24T09:00:27.685Z,1.67
2023-04-24T09:02:45.158Z,2.10
2023-04-24T09:05:02.292Z,1.90
2023-04-24T09:07:19.365Z,1.90
2023-04-24T09:09:36.669Z,1.90
2023-04-24T09:11:53.729Z,1.90
2023-04-24T09:14:10.679Z,2.22
2023-04-24T09:16:27.674Z,2.00
2023-04-24T09:18:45.011Z,2.03
2023-04-24T09:21:02.196Z,2.15
2023-04-24T09:23:20.537Z,2.20
2023-04-24T09:25:37.763Z,2.10
2023-04-24T09:27:55.057Z,2.30
2023-04-24T09:30:12.384Z,2.50
2023-04-24T09:32:29.443Z,2.60
2023-04-24T09:34:46.488Z,2.50
2023-04-24T09:37:03.469Z,2.40
2023-04-24T09:39:20.353Z,2.60
2023-04-24T09:41:37.372Z,2.70
2023-04-24T09:43:54.403Z,2.53
2023-04-24T09:46:11.680Z,2.50
2023-04-24T09:48:28.974Z,2.55
2023-04-24T09:50:46.117Z,2.60
2023-04-24T09:53:03.109Z,2.70
2023-04-24T09:55:21.303Z,2.50
2023-04-24T09:57:38.332Z,2.10
2023-04-24T09:59:55.360Z,2.35
2023-04-24T10:02:12.282Z,2.40
2023-04-24T10:04:29.465Z,2.10
2023-04-24T10:06:46.715Z,2.15
2023-04-24T10:09:04.944Z,2.05
2023-04-24T10:11:21.933Z,2.33
2023-04-24T10:13:39.020Z,2.50
2023-04-24T10:15:56.064Z,2.72
2023-04-24T10:18:14.119Z,2.63
2023-04-24T10:20:31.196Z,2.70
2023-04-24T10:22:48.469Z,2.75
2023-04-24T10:25:05.451Z,3.03
2023-04-24T10:27:23.352Z,3.63
2023-04-24T10:29:40.614Z,4.03
2023-04-24T10:31:57.720Z,3.92
2023-04-24T10:34:15.023Z,4.22
2023-04-24T10:36:32.054Z,3.80
2023-04-24T10:38:49.086Z,3.90
2023-04-24T10:41:06.200Z,3.80
2023-04-24T10:43:23.228Z,4.38
2023-04-24T10:45:40.580Z,4.43
2023-04-24T10:47:57.570Z,3.90
2023-04-24T10:50:14.699Z,4.32
2023-04-24T10:52:31.968Z,3.72
2023-04-24T10:54:50.212Z,4.00
2023-04-24T10:57:07.441Z,3.80
2023-04-24T10:59:24.506Z,3.30
2023-04-24T11:01:41.516Z,3.83
2023-04-24T11:03:58.685Z,3.83
2023-04-24T11:06:16.085Z,3.67
2023-04-24T11:08:33.435Z,4.30
2023-04-24T11:10:51.756Z,4.13
2023-04-24T11:13:09.949Z,3.80
2023-04-24T11:15:27.885Z,4.10
2023-04-24T11:17:45.516Z,4.80
2023-04-24T11:20:12.167Z,5.00
2023-04-24T11:22:33.048Z,4.45
2023-04-24T11:24:50.049Z,4.75
2023-04-24T11:27:08.360Z,5.68
2023-04-24T11:29:25.851Z,4.28
2023-04-24T11:31:43.230Z,4.40
2023-04-24T11:34:00.356Z,4.40
2023-04-24T11:36:17.686Z,4.53
2023-04-24T11:38:34.962Z,4.53
2023-04-24T11:40:52.189Z,4.15
2023-04-24T11:43:09.509Z,4.35
2023-04-24T11:45:26.602Z,4.20
2023-04-24T11:47:43.759Z,4.30
2023-04-24T11:50:01.138Z,4.00
2023-04-24T11:52:18.933Z,4.28
2023-04-24T11:54:36.064Z,4.15
2023-04-24T11:56:53.897Z,4.47
2023-04-24T11:59:11.201Z,3.90
2023-04-24T12:01:28.137Z,4.05
2023-04-24T12:03:45.624Z,3.90
2023-04-24T12:06:03.261Z,4.18
2023-04-24T12:08:20.609Z,3.90
2023-04-24T12:10:37.857Z,4.10
2023-04-24T12:12:55.131Z,3.47
2023-04-24T12:15:12.438Z,4.05
2023-04-24T12:17:29.815Z,3.70
2023-04-24T12:19:47.959Z,3.67
2023-04-24T12:22:05.049Z,4.03
2023-04-24T12:24:22.068Z,3.70
2023-04-24T12:26:41.849Z,4.10
2023-04-24T12:29:00.243Z,3.67
2023-04-24T12:31:18.586Z,4.00
2023-04-24T12:33:35.662Z,3.45
2023-04-24T12:35:53.023Z,3.70
2023-04-24T12:38:11.321Z,3.63
2023-04-24T12:40:29.352Z,3.90
2023-04-24T12:42:47.349Z,3.72
2023-04-24T12:45:04.377Z,3.63
2023-04-24T12:47:22.504Z,4.03
2023-04-24T12:49:39.911Z,3.85
2023-04-24T12:51:57.183Z,4.00
2023-04-24T12:54:14.985Z,4.28
2023-04-24T12:56:32.224Z,4.60
2023-04-24T12:58:49.276Z,4.15
2023-04-24T13:01:06.346Z,4.13
2023-04-24T13:03:23.998Z,4.10
2023-04-24T13:05:41.383Z,4.22
2023-04-24T13:07:59.466Z,4.88
2023-04-24T13:10:16.562Z,4.47
2023-04-24T13:12:33.603Z,4.88
2023-04-24T13:14:50.797Z,4.38
2023-04-24T13:17:07.840Z,4.22
2023-04-24T13:19:24.774Z,4.40
2023-04-24T13:21:42.042Z,4.00
2023-04-24T13:23:59.112Z,4.80
2023-04-24T13:26:16.474Z,5.10
2023-04-24T13:28:33.465Z,4.93
2023-04-24T13:30:52.215Z,4.38
2023-04-24T13:33:09.564Z,4.40
2023-04-24T13:35:26.920Z,4.40
2023-04-24T13:37:44.001Z,4.53
2023-04-24T13:40:01.290Z,3.92
2023-04-24T13:42:18.532Z,4.88
2023-04-24T13:44:35.587Z,4.80
2023-04-24T13:46:52.506Z,5.10
2023-04-24T13:49:09.569Z,4.88
2023-04-24T13:51:27.379Z,5.07
2023-04-24T13:53:44.682Z,4.82
2023-04-24T13:56:03.028Z,5.40
2023-04-24T13:58:20.299Z,5.32
2023-04-24T14:00:37.668Z,5.15
2023-04-24T14:02:54.871Z,4.70
2023-04-24T14:05:13.205Z,5.20
2023-04-24T14:07:30.498Z,5.00
2023-04-24T14:09:47.490Z,5.03
2023-04-24T14:12:04.855Z,4.95
2023-04-24T14:14:21.898Z,4.72
2023-04-24T14:16:39.036Z,5.07
2023-04-24T14:18:56.053Z,4.07
2023-04-24T14:21:13.979Z,4.70
2023-04-24T14:23:31.237Z,4.90
2023-04-24T14:25:48.505Z,4.90
2023-04-24T14:28:05.740Z,4.65
2023-04-24T14:30:22.820Z,5.32
2023-04-24T14:32:40.162Z,4.25
2023-04-24T14:34:58.255Z,4.20
2023-04-24T14:37:15.583Z,4.47
2023-04-24T14:39:32.660Z,4.50
2023-04-24T14:41:50.002Z,4.25
2023-04-24T14:44:06.993Z,4.30
2023-04-24T14:46:23.969Z,4.78
2023-04-24T14:48:42.037Z,4.75
2023-04-24T14:50:59.333Z,4.68
2023-04-24T14:53:16.340Z,4.93
2023-04-24T14:55:33.311Z,4.70
2023-04-24T14:57:51.568Z,4.75
2023-04-24T15:00:08.493Z,4.43
2023-04-24T15:02:25.913Z,4.57
2023-04-24T15:04:43.219Z,4.20
2023-04-24T15:07:00.380Z,4.38
2023-04-24T15:09:17.396Z,4.25
2023-04-24T15:11:34.661Z,4.22
2023-04-24T15:13:51.667Z,3.85
2023-04-24T15:16:09.008Z,4.05
2023-04-24T15:18:26.037Z,3.90
2023-04-24T15:20:43.129Z,3.67
2023-04-24T15:23:00.710Z,3.85
2023-04-24T15:25:17.717Z,3.78
2023-04-24T15:27:34.975Z,4.80
2023-04-24T15:29:51.966Z,4.30
2023-04-24T15:32:10.413Z,4.75
2023-04-24T15:34:27.664Z,4.55
2023-04-24T15:36:44.721Z,4.22
2023-04-24T15:39:04.315Z,4.55
2023-04-24T15:41:21.896Z,4.35
2023-04-24T15:43:38.948Z,4.90
2023-04-24T15:45:55.999Z,4.80
2023-04-24T15:48:13.046Z,4.95
2023-04-24T15:50:30.045Z,4.68
2023-04-24T15:52:47.063Z,5.18
2023-04-24T15:55:04.344Z,5.20
2023-04-24T15:57:21.589Z,4.60
2023-04-24T15:59:38.600Z,3.95
2023-04-24T16:01:55.927Z,4.43
2023-04-24T16:04:13.145Z,4.47
2023-04-24T16:06:30.481Z,4.55
2023-04-24T16:08:48.759Z,5.22
2023-04-24T16:11:06.186Z,4.70
2023-04-24T16:13:23.083Z,3.92
2023-04-24T16:15:40.245Z,4.05
2023-04-24T16:17:58.318Z,3.38
2023-04-24T16:20:15.690Z,3.63
2023-04-24T16:22:32.809Z,3.47
2023-04-24T16:24:50.661Z,3.60
2023-04-24T16:27:07.693Z,3.42
2023-04-24T16:29:25.630Z,3.10
2023-04-24T16:31:42.645Z,3.47
2023-04-24T16:33:59.708Z,3.40
2023-04-24T16:36:16.760Z,3.30
2023-04-24T16:38:34.995Z,3.72
2023-04-24T16:40:52.310Z,3.47
2023-04-24T16:43:09.616Z,3.47
2023-04-24T16:45:27.622Z,3.67
2023-04-24T16:47:44.964Z,3.88
2023-04-24T16:50:01.976Z,3.50
2023-04-24T16:52:19.012Z,3.60
2023-04-24T16:54:37.028Z,3.75
2023-04-24T16:56:54.086Z,3.80
2023-04-24T16:59:11.035Z,3.90
2023-04-24T17:01:28.398Z,3.50
2023-04-24T17:03:46.575Z,3.60
2023-04-24T17:06:03.717Z,3.28
2023-04-24T17:08:20.761Z,3.38
2023-04-24T17:10:37.772Z,2.97
2023-04-24T17:12:54.800Z,3.22
2023-04-24T17:15:12.082Z,3.45
2023-04-24T17:17:29.081Z,3.40
2023-04-24T17:19:46.113Z,4.10
2023-04-24T17:22:06.090Z,3.58
2023-04-24T17:24:23.590Z,3.78
2023-04-24T17:26:40.587Z,3.97
2023-04-24T17:28:57.861Z,4.20
2023-04-24T17:31:14.858Z,4.50
2023-04-24T17:33:31.930Z,4.30
2023-04-24T17:35:49.175Z,4.07
2023-04-24T17:38:06.102Z,4.35
2023-04-24T17:40:23.373Z,4.30
2023-04-24T17:42:40.782Z,4.00
2023-04-24T17:44:58.710Z,4.10
2023-04-24T17:47:15.990Z,4.25
2023-04-24T17:49:33.256Z,3.97
2023-04-24T17:51:51.450Z,4.55
2023-04-24T17:54:08.478Z,4.88
2023-04-24T17:56:25.514Z,4.10
2023-04-24T17:58:42.558Z,4.07
2023-04-24T18:01:00.257Z,3.75
2023-04-24T18:03:17.648Z,4.60
2023-04-24T18:05:34.622Z,4.82
2023-04-24T18:07:51.605Z,5.20
2023-04-24T18:10:08.914Z,4.40
2023-04-24T18:12:25.972Z,4.50
2023-04-24T18:14:43.927Z,4.65
2023-04-24T18:17:00.998Z,4.68
2023-04-24T18:19:18.332Z,4.65
2023-04-24T18:21:35.421Z,3.65
2023-04-24T18:23:52.402Z,4.43
2023-04-24T18:26:09.635Z,3.65
2023-04-24T18:28:26.598Z,3.63
2023-04-24T18:30:43.817Z,3.92
2023-04-24T18:33:01.082Z,3.95
2023-04-24T18:35:18.492Z,4.15
2023-04-24T18:37:36.338Z,3.90
2023-04-24T18:39:53.335Z,3.90
2023-04-24T18:42:10.339Z,3.80
2023-04-24T18:44:27.327Z,3.70
2023-04-24T18:46:44.640Z,3.55
2023-04-24T18:49:02.883Z,3.65
2023-04-24T18:51:20.866Z,3.60
2023-04-24T18:53:37.900Z,3.90
2023-04-24T18:55:55.143Z,4.30
2023-04-24T18:58:12.142Z,4.05
2023-04-24T19:00:29.135Z,3.70
2023-04-24T19:02:46.590Z,4.18
2023-04-24T19:05:03.952Z,4.10
2023-04-24T19:07:21.223Z,4.05
2023-04-24T19:09:38.589Z,4.53
2023-04-24T19:11:56.554Z,4.43
2023-04-24T19:14:13.616Z,5.18
2023-04-24T19:16:30.720Z,5.47
2023-04-24T19:18:49.052Z,5.15
2023-04-24T19:21:06.303Z,4.85
2023-04-24T19:23:23.652Z,4.78
2023-04-24T19:25:40.892Z,4.38
2023-04-24T19:27:57.917Z,4.35
2023-04-24T19:30:14.941Z,4.20
2023-04-24T19:32:32.317Z,4.10
2023-04-24T19:34:49.672Z,3.92
2023-04-24T19:37:06.711Z,3.20
2023-04-24T19:39:23.791Z,3.03
2023-04-24T19:41:41.105Z,2.60
2023-04-24T19:43:59.348Z,2.28
2023-04-24T19:46:16.338Z,2.20
2023-04-24T19:48:33.376Z,2.53
2023-04-24T19:50:50.445Z,1.95
2023-04-24T19:53:07.484Z,2.22
2023-04-24T19:55:24.778Z,2.38
2023-04-24T19:57:41.788Z,2.20
2023-04-24T19:59:59.097Z,2.10
2023-04-24T20:02:16.154Z,2.10
2023-04-24T20:04:33.375Z,1.90
2023-04-24T20:06:50.513Z,1.83
2023-04-24T20:09:07.447Z,2.03
2023-04-24T20:11:24.468Z,1.98
2023-04-24T20:13:42.402Z,1.90
2023-04-24T20:15:59.651Z,1.80
2023-04-24T20:18:18.004Z,2.00
2023-04-24T20:20:35.387Z,2.20
2023-04-24T20:22:53.246Z,2.33
2023-04-24T20:25:10.286Z,2.53
2023-04-24T20:27:28.516Z,2.70
2023-04-24T20:29:45.777Z,2.78
2023-04-24T20:32:02.720Z,2.83
2023-04-24T20:34:19.728Z,3.10
2023-04-24T20:36:36.712Z,3.35
2023-04-24T20:38:54.897Z,3.58
2023-04-24T20:41:12.162Z,3.90
2023-04-24T20:43:29.563Z,3.40
2023-04-24T20:45:46.708Z,3.95
2023-04-24T20:48:03.743Z,4.05
2023-04-24T20:50:21.074Z,3.70
2023-04-24T20:52:38.063Z,3.80
2023-04-24T20:54:55.212Z,3.90
2023-04-24T20:57:12.174Z,3.55
2023-04-24T20:59:29.280Z,3.40
2023-04-24T21:01:46.318Z,3.28
2023-04-24T21:04:03.416Z,3.67
2023-04-24T21:06:20.654Z,3.58
2023-04-24T21:08:37.901Z,3.47
2023-04-24T21:10:55.201Z,3.10
2023-04-24T21:13:12.529Z,3.40
2023-04-24T21:15:29.821Z,3.63
2023-04-24T21:17:47.869Z,3.92
2023-04-24T21:20:05.148Z,3.83
2023-04-24T21:22:22.279Z,4.05
2023-04-24T21:24:39.243Z,3.55
2023-04-24T21:26:56.538Z,3.55
2023-04-24T21:29:13.440Z,4.22
2023-04-24T21:31:30.560Z,3.63
2023-04-24T21:33:48.089Z,3.65
2023-04-24T21:36:05.410Z,4.13
2023-04-24T21:38:22.358Z,4.00
2023-04-24T21:40:39.452Z,4.05
2023-04-24T21:42:56.383Z,4.00
2023-04-24T21:45:13.407Z,4.63
2023-04-24T21:47:30.368Z,4.28
2023-04-24T21:49:47.488Z,4.38
2023-04-24T21:52:05.415Z,4.43
2023-04-24T21:54:22.507Z,4.25
2023-04-24T21:56:39.821Z,4.47
2023-04-24T21:58:56.878Z,4.80
2023-04-24T22:01:14.214Z,4.15
2023-04-24T22:03:31.498Z,5.07
2023-04-24T22:05:49.037Z,4.57
2023-04-24T22:08:06.381Z,4.82
2023-04-24T22:10:23.302Z,4.38
2023-04-24T22:12:40.245Z,4.88
2023-04-24T22:14:57.322Z,4.50
2023-04-24T22:17:14.464Z,4.60
2023-04-24T22:19:31.751Z,4.78
2023-04-24T22:21:49.163Z,4.22
2023-04-24T22:24:06.146Z,4.70
2023-04-24T22:26:23.435Z,4.93
2023-04-24T22:28:40.695Z,4.82
2023-04-24T22:30:57.739Z,4.60
2023-04-24T22:33:15.067Z,4.53
2023-04-24T22:35:32.383Z,4.80
2023-04-24T22:37:50.641Z,5.10
2023-04-24T22:40:10.183Z,4.85
2023-04-24T22:42:27.614Z,4.78
2023-04-24T22:44:44.890Z,5.32
2023-04-24T22:47:01.830Z,4.88
2023-04-24T22:49:18.931Z,5.07
2023-04-24T22:51:37.115Z,4.78
2023-04-24T22:53:54.086Z,6.03
2023-04-24T22:56:11.019Z,6.13
2023-04-24T22:58:28.328Z,6.05
2023-04-24T23:00:45.576Z,5.70
2023-04-24T23:03:03.014Z,5.10
2023-04-24T23:05:20.244Z,5.40
2023-04-24T23:07:37.212Z,5.15
2023-04-24T23:09:55.978Z,4.97
2023-04-24T23:12:12.977Z,4.57
2023-04-24T23:14:30.258Z,5.60
2023-04-24T23:16:47.607Z,5.38
2023-04-24T23:19:04.659Z,5.43
2023-04-24T23:21:21.727Z,5.57
2023-04-24T23:23:38.850Z,5.00
2023-04-24T23:25:55.932Z,4.97
2023-04-24T23:28:12.956Z,5.03
2023-04-24T23:30:31.518Z,4.68
2023-04-24T23:32:48.804Z,4.90
2023-04-24T23:35:05.886Z,4.65
2023-04-24T23:37:22.978Z,5.03
2023-04-24T23:39:40.065Z,4.95
2023-04-24T23:41:56.916Z,5.30
2023-04-24T23:44:14.165Z,5.15
2023-04-24T23:46:31.279Z,4.68
2023-04-24T23:48:48.396Z,4.78
2023-04-24T23:51:05.503Z,5.32
2023-04-24T23:53:22.920Z,4.35
2023-04-24T23:55:40.079Z,4.75
2023-04-24T23:57:57.062Z,5.40
